sensor_id;sensor_type;location;lat;lon;timestamp;P1;durP1;ratioP1;P2;durP2;ratioP2
75628;SDS011;64213;46.452;16.994;2023-04-01T00:00:33;4.53;;;0.80;;
75628;SDS011;64213;46.452;16.994;2023-04-01T00:03:35;5.45;;;0.82;;
75628;SDS011;64213;46.452;16.994;2023-04-01T00:06:39;4.37;;;0.75;;
75628;SDS011;64213;46.452;16.994;2023-04-01T00:09:41;2.60;;;0.40;;
75628;SDS011;64213;46.452;16.994;2023-04-01T00:12:43;4.70;;;0.80;;
75628;SDS011;64213;46.452;16.994;2023-04-01T00:15:46;5.37;;;1.20;;
75628;SDS011;64213;46.452;16.994;2023-04-01T00:18:49;4.70;;;0.77;;
75628;SDS011;64213;46.452;16.994;2023-04-01T00:21:52;4.47;;;0.85;;
75628;SDS011;64213;46.452;16.994;2023-04-01T00:24:55;6.23;;;1.60;;
75628;SDS011;64213;46.452;16.994;2023-04-01T00:27:57;5.15;;;1.10;;
75628;SDS011;64213;46.452;16.994;2023-04-01T00:30:59;5.95;;;1.35;;
75628;SDS011;64213;46.452;16.994;2023-04-01T00:34:06;8.57;;;1.33;;
75628;SDS011;64213;46.452;16.994;2023-04-01T00:37:08;6.93;;;1.90;;
75628;SDS011;64213;46.452;16.994;2023-04-01T00:40:22;5.27;;;1.13;;
75628;SDS011;64213;46.452;16.994;2023-04-01T00:43:34;6.22;;;1.35;;
75628;SDS011;64213;46.452;16.994;2023-04-01T00:46:36;6.80;;;1.50;;
75628;SDS011;64213;46.452;16.994;2023-04-01T00:49:39;6.35;;;1.52;;
75628;SDS011;64213;46.452;16.994;2023-04-01T00:52:44;6.55;;;1.80;;
75628;SDS011;64213;46.452;16.994;2023-04-01T00:55:49;7.70;;;1.50;;
75628;SDS011;64213;46.452;16.994;2023-04-01T00:59:00;6.30;;;1.60;;
75628;SDS011;64213;46.452;16.994;2023-04-01T01:02:07;5.70;;;1.42;;
75628;SDS011;64213;46.452;16.994;2023-04-01T01:05:15;7.28;;;1.80;;
75628;SDS011;64213;46.452;16.994;2023-04-01T01:08:23;8.63;;;1.90;;
75628;SDS011;64213;46.452;16.994;2023-04-01T01:11:59;6.20;;;1.70;;
75628;SDS011;64213;46.452;16.994;2023-04-01T01:18:11;6.30;;;1.73;;
75628;SDS011;64213;46.452;16.994;2023-04-01T01:21:46;7.25;;;1.50;;
75628;SDS011;64213;46.452;16.994;2023-04-01T01:38:26;7.90;;;2.10;;
75628;SDS011;64213;46.452;16.994;2023-04-01T01:41:32;9.52;;;2.70;;
75628;SDS011;64213;46.452;16.994;2023-04-01T01:44:36;8.73;;;2.13;;
75628;SDS011;64213;46.452;16.994;2023-04-01T01:47:40;9.00;;;2.30;;
75628;SDS011;64213;46.452;16.994;2023-04-01T01:50:44;6.60;;;1.90;;
75628;SDS011;64213;46.452;16.994;2023-04-01T01:53:48;7.68;;;2.08;;
75628;SDS011;64213;46.452;16.994;2023-04-01T01:56:51;7.43;;;1.77;;
75628;SDS011;64213;46.452;16.994;2023-04-01T02:00:59;11.17;;;3.30;;
75628;SDS011;64213;46.452;16.994;2023-04-01T02:04:02;6.53;;;1.77;;
75628;SDS011;64213;46.452;16.994;2023-04-01T02:07:14;8.05;;;2.37;;
75628;SDS011;64213;46.452;16.994;2023-04-01T02:10:22;7.60;;;1.90;;
75628;SDS011;64213;46.452;16.994;2023-04-01T02:13:48;7.20;;;1.60;;
75628;SDS011;64213;46.452;16.994;2023-04-01T02:17:02;6.80;;;1.53;;
75628;SDS011;64213;46.452;16.994;2023-04-01T02:23:16;6.18;;;1.62;;
75628;SDS011;64213;46.452;16.994;2023-04-01T02:26:18;7.18;;;2.00;;
75628;SDS011;64213;46.452;16.994;2023-04-01T02:29:23;6.50;;;1.55;;
75628;SDS011;64213;46.452;16.994;2023-04-01T02:32:27;5.53;;;1.40;;
75628;SDS011;64213;46.452;16.994;2023-04-01T02:35:32;6.25;;;1.58;;
75628;SDS011;64213;46.452;16.994;2023-04-01T02:38:37;5.97;;;1.37;;
75628;SDS011;64213;46.452;16.994;2023-04-01T02:41:41;7.47;;;1.70;;
75628;SDS011;64213;46.452;16.994;2023-04-01T02:44:45;9.13;;;2.58;;
75628;SDS011;64213;46.452;16.994;2023-04-01T02:47:47;7.80;;;1.83;;
75628;SDS011;64213;46.452;16.994;2023-04-01T02:50:50;7.57;;;1.90;;
75628;SDS011;64213;46.452;16.994;2023-04-01T02:53:52;8.45;;;1.98;;
75628;SDS011;64213;46.452;16.994;2023-04-01T02:56:55;6.62;;;1.87;;
75628;SDS011;64213;46.452;16.994;2023-04-01T02:59:57;6.80;;;1.95;;
75628;SDS011;64213;46.452;16.994;2023-04-01T03:02:59;7.67;;;1.63;;
75628;SDS011;64213;46.452;16.994;2023-04-01T03:06:06;6.45;;;1.65;;
75628;SDS011;64213;46.452;16.994;2023-04-01T03:09:12;6.82;;;1.70;;
75628;SDS011;64213;46.452;16.994;2023-04-01T03:12:16;8.13;;;1.83;;
75628;SDS011;64213;46.452;16.994;2023-04-01T03:15:18;5.95;;;1.55;;
75628;SDS011;64213;46.452;16.994;2023-04-01T03:18:20;7.07;;;1.60;;
75628;SDS011;64213;46.452;16.994;2023-04-01T03:21:23;8.07;;;1.87;;
75628;SDS011;64213;46.452;16.994;2023-04-01T03:24:25;6.47;;;2.00;;
75628;SDS011;64213;46.452;16.994;2023-04-01T03:27:27;6.43;;;1.45;;
75628;SDS011;64213;46.452;16.994;2023-04-01T03:30:29;9.05;;;2.17;;
75628;SDS011;64213;46.452;16.994;2023-04-01T03:33:33;11.00;;;2.00;;
75628;SDS011;64213;46.452;16.994;2023-04-01T03:36:35;8.65;;;2.10;;
75628;SDS011;64213;46.452;16.994;2023-04-01T03:39:37;7.12;;;2.30;;
75628;SDS011;64213;46.452;16.994;2023-04-01T03:42:39;7.25;;;1.98;;
75628;SDS011;64213;46.452;16.994;2023-04-01T03:45:45;7.10;;;2.20;;
75628;SDS011;64213;46.452;16.994;2023-04-01T03:48:48;8.00;;;1.73;;
75628;SDS011;64213;46.452;16.994;2023-04-01T03:51:50;6.47;;;1.75;;
75628;SDS011;64213;46.452;16.994;2023-04-01T03:54:53;7.93;;;2.22;;
75628;SDS011;64213;46.452;16.994;2023-04-01T03:57:55;8.82;;;2.40;;
75628;SDS011;64213;46.452;16.994;2023-04-01T04:00:57;13.30;;;5.55;;
75628;SDS011;64213;46.452;16.994;2023-04-01T04:03:59;13.27;;;4.80;;
75628;SDS011;64213;46.452;16.994;2023-04-01T04:07:02;15.07;;;4.40;;
75628;SDS011;64213;46.452;16.994;2023-04-01T04:10:04;13.25;;;3.50;;
75628;SDS011;64213;46.452;16.994;2023-04-01T04:13:07;10.73;;;3.58;;
75628;SDS011;64213;46.452;16.994;2023-04-01T04:16:09;9.60;;;3.20;;
75628;SDS011;64213;46.452;16.994;2023-04-01T04:19:12;10.27;;;2.80;;
75628;SDS011;64213;46.452;16.994;2023-04-01T04:22:14;9.73;;;2.90;;
75628;SDS011;64213;46.452;16.994;2023-04-01T04:25:16;9.68;;;3.28;;
75628;SDS011;64213;46.452;16.994;2023-04-01T04:28:18;10.52;;;3.30;;
75628;SDS011;64213;46.452;16.994;2023-04-01T04:31:21;10.88;;;3.00;;
75628;SDS011;64213;46.452;16.994;2023-04-01T04:34:25;8.13;;;2.93;;
75628;SDS011;64213;46.452;16.994;2023-04-01T04:37:27;10.60;;;3.87;;
75628;SDS011;64213;46.452;16.994;2023-04-01T04:40:29;9.45;;;3.75;;
75628;SDS011;64213;46.452;16.994;2023-04-01T04:43:31;9.60;;;3.42;;
75628;SDS011;64213;46.452;16.994;2023-04-01T04:46:33;9.68;;;3.70;;
75628;SDS011;64213;46.452;16.994;2023-04-01T04:49:35;11.30;;;3.97;;
75628;SDS011;64213;46.452;16.994;2023-04-01T04:52:38;14.27;;;4.20;;
75628;SDS011;64213;46.452;16.994;2023-04-01T04:55:46;11.80;;;4.32;;
75628;SDS011;64213;46.452;16.994;2023-04-01T04:58:49;12.07;;;3.92;;
75628;SDS011;64213;46.452;16.994;2023-04-01T05:01:52;10.50;;;3.85;;
75628;SDS011;64213;46.452;16.994;2023-04-01T05:04:54;9.30;;;3.60;;
75628;SDS011;64213;46.452;16.994;2023-04-01T05:07:56;10.57;;;3.50;;
75628;SDS011;64213;46.452;16.994;2023-04-01T05:10:58;10.27;;;3.37;;
75628;SDS011;64213;46.452;16.994;2023-04-01T05:14:00;7.85;;;2.80;;
75628;SDS011;64213;46.452;16.994;2023-04-01T05:17:02;10.65;;;3.45;;
75628;SDS011;64213;46.452;16.994;2023-04-01T05:20:05;9.70;;;3.70;;
75628;SDS011;64213;46.452;16.994;2023-04-01T05:23:08;11.07;;;3.85;;
75628;SDS011;64213;46.452;16.994;2023-04-01T05:26:12;9.02;;;3.10;;
75628;SDS011;64213;46.452;16.994;2023-04-01T05:29:16;9.18;;;3.40;;
75628;SDS011;64213;46.452;16.994;2023-04-01T05:32:18;8.90;;;3.42;;
75628;SDS011;64213;46.452;16.994;2023-04-01T05:35:20;8.37;;;3.03;;
75628;SDS011;64213;46.452;16.994;2023-04-01T05:38:22;12.40;;;3.90;;
75628;SDS011;64213;46.452;16.994;2023-04-01T05:41:24;10.85;;;3.53;;
75628;SDS011;64213;46.452;16.994;2023-04-01T05:44:26;10.02;;;3.85;;
75628;SDS011;64213;46.452;16.994;2023-04-01T05:47:28;10.63;;;3.95;;
75628;SDS011;64213;46.452;16.994;2023-04-01T05:50:31;10.23;;;3.63;;
75628;SDS011;64213;46.452;16.994;2023-04-01T05:53:35;9.25;;;3.60;;
75628;SDS011;64213;46.452;16.994;2023-04-01T05:56:37;13.10;;;4.18;;
75628;SDS011;64213;46.452;16.994;2023-04-01T05:59:39;11.18;;;4.40;;
75628;SDS011;64213;46.452;16.994;2023-04-01T06:02:41;12.40;;;4.60;;
75628;SDS011;64213;46.452;16.994;2023-04-01T06:05:44;11.13;;;3.73;;
75628;SDS011;64213;46.452;16.994;2023-04-01T06:08:46;11.38;;;4.35;;
75628;SDS011;64213;46.452;16.994;2023-04-01T06:22:27;11.67;;;4.63;;
75628;SDS011;64213;46.452;16.994;2023-04-01T06:28:39;9.77;;;4.18;;
75628;SDS011;64213;46.452;16.994;2023-04-01T06:38:24;11.17;;;4.57;;
75628;SDS011;64213;46.452;16.994;2023-04-01T06:48:29;16.42;;;6.43;;
75628;SDS011;64213;46.452;16.994;2023-04-01T06:51:52;11.20;;;4.90;;
75628;SDS011;64213;46.452;16.994;2023-04-01T06:55:23;13.30;;;5.07;;
75628;SDS011;64213;46.452;16.994;2023-04-01T06:58:42;11.20;;;4.72;;
75628;SDS011;64213;46.452;16.994;2023-04-01T07:01:49;9.20;;;3.05;;
75628;SDS011;64213;46.452;16.994;2023-04-01T07:04:55;10.30;;;3.67;;
75628;SDS011;64213;46.452;16.994;2023-04-01T07:08:01;9.95;;;4.00;;
75628;SDS011;64213;46.452;16.994;2023-04-01T07:11:08;9.57;;;3.40;;
75628;SDS011;64213;46.452;16.994;2023-04-01T07:17:38;9.95;;;3.45;;
75628;SDS011;64213;46.452;16.994;2023-04-01T07:20:43;9.10;;;3.03;;
75628;SDS011;64213;46.452;16.994;2023-04-01T07:23:46;9.07;;;3.15;;
75628;SDS011;64213;46.452;16.994;2023-04-01T07:26:54;8.47;;;2.63;;
75628;SDS011;64213;46.452;16.994;2023-04-01T07:29:58;10.02;;;2.92;;
75628;SDS011;64213;46.452;16.994;2023-04-01T07:33:04;9.43;;;3.10;;
75628;SDS011;64213;46.452;16.994;2023-04-01T07:36:42;8.43;;;3.00;;
75628;SDS011;64213;46.452;16.994;2023-04-01T07:50:11;8.90;;;2.75;;
75628;SDS011;64213;46.452;16.994;2023-04-01T08:00:02;8.17;;;2.67;;
75628;SDS011;64213;46.452;16.994;2023-04-01T08:09:59;7.18;;;2.30;;
75628;SDS011;64213;46.452;16.994;2023-04-01T08:16:20;9.37;;;3.00;;
75628;SDS011;64213;46.452;16.994;2023-04-01T08:19:50;7.80;;;2.55;;
75628;SDS011;64213;46.452;16.994;2023-04-01T08:23:11;8.15;;;2.65;;
75628;SDS011;64213;46.452;16.994;2023-04-01T08:32:49;8.77;;;2.90;;
75628;SDS011;64213;46.452;16.994;2023-04-01T08:39:06;8.85;;;3.47;;
75628;SDS011;64213;46.452;16.994;2023-04-01T08:42:27;9.25;;;3.20;;
75628;SDS011;64213;46.452;16.994;2023-04-01T08:49:06;8.13;;;2.70;;
75628;SDS011;64213;46.452;16.994;2023-04-01T09:18:24;8.45;;;2.33;;
75628;SDS011;64213;46.452;16.994;2023-04-01T09:21:36;6.93;;;2.03;;
75628;SDS011;64213;46.452;16.994;2023-04-01T09:41:45;6.15;;;1.33;;
75628;SDS011;64213;46.452;16.994;2023-04-01T09:44:55;5.50;;;1.50;;
75628;SDS011;64213;46.452;16.994;2023-04-01T10:16:26;5.30;;;1.00;;
75628;SDS011;64213;46.452;16.994;2023-04-01T11:12:34;5.50;;;1.33;;
75628;SDS011;64213;46.452;16.994;2023-04-01T11:19:36;5.53;;;1.48;;
75628;SDS011;64213;46.452;16.994;2023-04-01T11:29:49;5.18;;;1.30;;
75628;SDS011;64213;46.452;16.994;2023-04-01T11:33:04;5.40;;;1.45;;
75628;SDS011;64213;46.452;16.994;2023-04-01T11:37:11;5.60;;;1.20;;
75628;SDS011;64213;46.452;16.994;2023-04-01T11:43:31;4.65;;;1.20;;
75628;SDS011;64213;46.452;16.994;2023-04-01T11:56:49;3.33;;;0.70;;
75628;SDS011;64213;46.452;16.994;2023-04-01T12:07:27;1.90;;;0.40;;
75628;SDS011;64213;46.452;16.994;2023-04-01T12:14:19;3.00;;;0.60;;
75628;SDS011;64213;46.452;16.994;2023-04-01T12:20:51;1.98;;;0.52;;
75628;SDS011;64213;46.452;16.994;2023-04-01T12:28:41;3.55;;;0.80;;
75628;SDS011;64213;46.452;16.994;2023-04-01T12:42:04;3.55;;;0.65;;
75628;SDS011;64213;46.452;16.994;2023-04-01T12:45:32;2.25;;;0.60;;
75628;SDS011;64213;46.452;16.994;2023-04-01T12:49:00;2.50;;;0.63;;
75628;SDS011;64213;46.452;16.994;2023-04-01T12:55:35;2.15;;;0.50;;
75628;SDS011;64213;46.452;16.994;2023-04-01T13:16:08;1.87;;;0.50;;
75628;SDS011;64213;46.452;16.994;2023-04-01T13:19:31;2.45;;;0.45;;
75628;SDS011;64213;46.452;16.994;2023-04-01T13:29:18;2.95;;;0.55;;
75628;SDS011;64213;46.452;16.994;2023-04-01T13:42:33;3.00;;;0.50;;
75628;SDS011;64213;46.452;16.994;2023-04-01T13:49:11;4.68;;;0.40;;
75628;SDS011;64213;46.452;16.994;2023-04-01T13:55:35;1.30;;;0.40;;
75628;SDS011;64213;46.452;16.994;2023-04-01T14:16:50;4.65;;;0.80;;
75628;SDS011;64213;46.452;16.994;2023-04-01T14:23:35;2.22;;;0.50;;
75628;SDS011;64213;46.452;16.994;2023-04-01T14:34:05;3.53;;;0.65;;
75628;SDS011;64213;46.452;16.994;2023-04-01T14:47:59;2.60;;;0.60;;
75628;SDS011;64213;46.452;16.994;2023-04-01T14:51:33;2.85;;;0.50;;
75628;SDS011;64213;46.452;16.994;2023-04-01T14:54:41;3.17;;;0.68;;
75628;SDS011;64213;46.452;16.994;2023-04-01T14:58:04;3.72;;;0.70;;
75628;SDS011;64213;46.452;16.994;2023-04-01T15:11:45;3.58;;;0.57;;
75628;SDS011;64213;46.452;16.994;2023-04-01T15:15:39;3.22;;;0.60;;
75628;SDS011;64213;46.452;16.994;2023-04-01T15:29:47;4.50;;;0.75;;
75628;SDS011;64213;46.452;16.994;2023-04-01T15:33:23;6.28;;;0.80;;
75628;SDS011;64213;46.452;16.994;2023-04-01T15:37:13;4.22;;;0.98;;
75628;SDS011;64213;46.452;16.994;2023-04-01T15:44:04;6.93;;;2.05;;
75628;SDS011;64213;46.452;16.994;2023-04-01T15:47:38;5.03;;;1.08;;
75628;SDS011;64213;46.452;16.994;2023-04-01T16:10:59;2.70;;;0.68;;
75628;SDS011;64213;46.452;16.994;2023-04-01T16:21:36;3.72;;;0.80;;
75628;SDS011;64213;46.452;16.994;2023-04-01T16:25:14;4.18;;;0.70;;
75628;SDS011;64213;46.452;16.994;2023-04-01T16:28:36;7.68;;;1.42;;
75628;SDS011;64213;46.452;16.994;2023-04-01T16:31:55;5.90;;;1.00;;
75628;SDS011;64213;46.452;16.994;2023-04-01T16:35:23;2.87;;;0.55;;
75628;SDS011;64213;46.452;16.994;2023-04-01T16:41:33;8.60;;;1.23;;
75628;SDS011;64213;46.452;16.994;2023-04-01T16:44:46;7.15;;;1.30;;
75628;SDS011;64213;46.452;16.994;2023-04-01T16:48:45;4.50;;;0.80;;
75628;SDS011;64213;46.452;16.994;2023-04-01T16:52:04;6.43;;;1.60;;
75628;SDS011;64213;46.452;16.994;2023-04-01T16:55:18;6.03;;;1.30;;
75628;SDS011;64213;46.452;16.994;2023-04-01T16:58:39;4.07;;;0.80;;
75628;SDS011;64213;46.452;16.994;2023-04-01T17:02:16;7.30;;;1.40;;
75628;SDS011;64213;46.452;16.994;2023-04-01T17:12:37;5.18;;;1.08;;
75628;SDS011;64213;46.452;16.994;2023-04-01T17:23:05;8.07;;;1.90;;
75628;SDS011;64213;46.452;16.994;2023-04-01T17:26:42;5.40;;;0.98;;
75628;SDS011;64213;46.452;16.994;2023-04-01T17:43:58;6.28;;;1.30;;
75628;SDS011;64213;46.452;16.994;2023-04-01T17:57:53;5.65;;;1.15;;
75628;SDS011;64213;46.452;16.994;2023-04-01T18:12:14;8.00;;;1.67;;
75628;SDS011;64213;46.452;16.994;2023-04-01T18:15:27;10.32;;;2.20;;
75628;SDS011;64213;46.452;16.994;2023-04-01T18:25:41;7.83;;;1.93;;
75628;SDS011;64213;46.452;16.994;2023-04-01T18:42:41;7.43;;;1.87;;
75628;SDS011;64213;46.452;16.994;2023-04-01T18:49:21;7.22;;;1.70;;
75628;SDS011;64213;46.452;16.994;2023-04-01T18:56:13;7.87;;;1.50;;
75628;SDS011;64213;46.452;16.994;2023-04-01T19:00:14;7.47;;;1.53;;
75628;SDS011;64213;46.452;16.994;2023-04-01T19:10:11;7.95;;;2.35;;
75628;SDS011;64213;46.452;16.994;2023-04-01T19:17:00;10.50;;;3.10;;
75628;SDS011;64213;46.452;16.994;2023-04-01T19:23:42;8.63;;;2.25;;
75628;SDS011;64213;46.452;16.994;2023-04-01T19:51:06;7.13;;;1.63;;
75628;SDS011;64213;46.452;16.994;2023-04-01T19:58:09;13.52;;;4.43;;
75628;SDS011;64213;46.452;16.994;2023-04-01T20:04:55;13.00;;;4.57;;
75628;SDS011;64213;46.452;16.994;2023-04-01T20:08:04;8.97;;;2.03;;
75628;SDS011;64213;46.452;16.994;2023-04-01T20:17:49;8.45;;;2.80;;
75628;SDS011;64213;46.452;16.994;2023-04-01T20:21:02;7.57;;;2.03;;
75628;SDS011;64213;46.452;16.994;2023-04-01T20:27:23;13.43;;;4.37;;
75628;SDS011;64213;46.452;16.994;2023-04-01T20:30:55;8.82;;;2.37;;
75628;SDS011;64213;46.452;16.994;2023-04-01T20:37:49;7.93;;;2.00;;
75628;SDS011;64213;46.452;16.994;2023-04-01T20:41:11;8.67;;;2.00;;
75628;SDS011;64213;46.452;16.994;2023-04-01T20:44:36;6.78;;;1.70;;
75628;SDS011;64213;46.452;16.994;2023-04-01T20:51:15;7.97;;;2.45;;
75628;SDS011;64213;46.452;16.994;2023-04-01T20:54:31;7.68;;;2.28;;
75628;SDS011;64213;46.452;16.994;2023-04-01T20:58:09;6.90;;;1.60;;
75628;SDS011;64213;46.452;16.994;2023-04-01T21:01:34;7.30;;;1.52;;
75628;SDS011;64213;46.452;16.994;2023-04-01T21:11:32;8.85;;;1.80;;
75628;SDS011;64213;46.452;16.994;2023-04-01T21:25:21;7.72;;;2.22;;
75628;SDS011;64213;46.452;16.994;2023-04-01T22:00:13;7.07;;;1.80;;
75628;SDS011;64213;46.452;16.994;2023-04-01T22:03:31;7.10;;;1.90;;
75628;SDS011;64213;46.452;16.994;2023-04-01T22:06:41;8.03;;;1.80;;
75628;SDS011;64213;46.452;16.994;2023-04-01T22:09:59;7.65;;;2.10;;
75628;SDS011;64213;46.452;16.994;2023-04-01T22:16:23;10.10;;;1.83;;
75628;SDS011;64213;46.452;16.994;2023-04-01T22:22:49;6.37;;;1.50;;
75628;SDS011;64213;46.452;16.994;2023-04-01T22:26:07;5.15;;;1.15;;
75628;SDS011;64213;46.452;16.994;2023-04-01T22:29:23;5.68;;;1.33;;
75628;SDS011;64213;46.452;16.994;2023-04-01T22:40:00;6.60;;;1.13;;
75628;SDS011;64213;46.452;16.994;2023-04-01T22:43:21;7.55;;;1.55;;
75628;SDS011;64213;46.452;16.994;2023-04-01T22:49:50;7.03;;;1.40;;
75628;SDS011;64213;46.452;16.994;2023-04-01T22:53:24;7.10;;;1.73;;
75628;SDS011;64213;46.452;16.994;2023-04-01T22:56:39;6.40;;;1.30;;
75628;SDS011;64213;46.452;16.994;2023-04-01T22:59:49;6.57;;;1.40;;
75628;SDS011;64213;46.452;16.994;2023-04-01T23:03:09;8.98;;;1.80;;
75628;SDS011;64213;46.452;16.994;2023-04-01T23:06:26;5.80;;;1.30;;
75628;SDS011;64213;46.452;16.994;2023-04-01T23:09:34;9.52;;;2.10;;
75628;SDS011;64213;46.452;16.994;2023-04-01T23:12:38;6.93;;;1.40;;
75628;SDS011;64213;46.452;16.994;2023-04-01T23:15:42;7.18;;;1.60;;
75628;SDS011;64213;46.452;16.994;2023-04-01T23:22:35;10.57;;;5.10;;
75628;SDS011;64213;46.452;16.994;2023-04-01T23:25:26;6.60;;;1.90;;
75628;SDS011;64213;46.452;16.994;2023-04-01T23:31:59;6.37;;;1.40;;
75628;SDS011;64213;46.452;16.994;2023-04-01T23:35:11;7.85;;;1.92;;
75628;SDS011;64213;46.452;16.994;2023-04-01T23:38:19;6.57;;;1.73;;
75628;SDS011;64213;46.452;16.994;2023-04-01T23:41:24;7.87;;;2.00;;
75628;SDS011;64213;46.452;16.994;2023-04-01T23:44:29;7.10;;;1.77;;
75628;SDS011;64213;46.452;16.994;2023-04-01T23:47:33;6.93;;;1.60;;
75628;SDS011;64213;46.452;16.994;2023-04-01T23:50:39;7.25;;;1.80;;
75628;SDS011;64213;46.452;16.994;2023-04-01T23:53:45;7.55;;;1.92;;
75628;SDS011;64213;46.452;16.994;2023-04-01T23:56:53;7.32;;;2.20;;
